createdAt,value
2018-09-15T00:02:06.471Z,66.90
2018-09-15T00:04:37.654Z,66.80
2018-09-15T00:07:09.217Z,67.00
2018-09-15T00:09:40.685Z,67.70
2018-09-15T00:12:11.695Z,67.10
2018-09-15T00:14:43.020Z,67.10
2018-09-15T00:17:13.755Z,67.10
2018-09-15T00:19:46.126Z,67.00
2018-09-15T00:22:16.806Z,67.40
2018-09-15T00:24:47.324Z,67.30
2018-09-15T00:27:17.855Z,67.50
2018-09-15T00:29:48.636Z,67.60
2018-09-15T00:32:20.531Z,67.70
2018-09-15T00:34:51.700Z,67.80
2018-09-15T00:37:22.382Z,67.70
2018-09-15T00:39:52.987Z,67.80
2018-09-15T00:42:23.290Z,67.90
2018-09-15T00:44:53.939Z,67.80
2018-09-15T00:47:24.764Z,68.00
2018-09-15T00:49:55.814Z,68.00
2018-09-15T00:52:28.372Z,68.00
2018-09-15T00:55:00.925Z,68.00
2018-09-15T00:57:49.342Z,68.10
2018-09-15T01:00:20.665Z,68.20
2018-09-15T01:02:51.090Z,68.10
2018-09-15T01:05:21.825Z,68.30
2018-09-15T01:07:52.614Z,68.50
2018-09-15T01:10:23.400Z,68.50
2018-09-15T01:12:54.400Z,68.50
2018-09-15T01:15:24.682Z,68.60
2018-09-15T01:17:55.576Z,68.50
2018-09-15T01:20:26.103Z,68.80
2018-09-15T01:22:56.509Z,68.90
2018-09-15T01:25:27.344Z,69.10
2018-09-15T01:27:58.084Z,69.20
2018-09-15T01:30:29.003Z,69.30
2018-09-15T01:32:59.734Z,70.00
2018-09-15T01:35:30.604Z,69.50
2018-09-15T01:38:01.078Z,69.70
2018-09-15T01:40:31.842Z,69.60
2018-09-15T01:43:02.684Z,69.70
2018-09-15T01:45:33.734Z,69.70
2018-09-15T01:48:03.970Z,70.50
2018-09-15T01:50:34.933Z,70.10
2018-09-15T01:53:05.398Z,70.30
2018-09-15T01:55:36.045Z,70.60
2018-09-15T01:58:06.360Z,70.60
2018-09-15T02:00:38.746Z,70.80
2018-09-15T02:03:09.914Z,71.10
2018-09-15T02:05:41.014Z,71.30
2018-09-15T02:08:11.395Z,71.60
2018-09-15T02:10:42.346Z,71.80
2018-09-15T02:13:13.963Z,72.00
2018-09-15T02:15:44.317Z,72.20
2018-09-15T02:18:14.780Z,72.40
2018-09-15T02:20:45.515Z,72.60
2018-09-15T02:23:17.904Z,72.80
2018-09-15T02:25:49.191Z,73.10
2018-09-15T02:28:19.539Z,73.40
2018-09-15T02:30:49.385Z,73.80
2018-09-15T02:33:21.723Z,74.10
2018-09-15T02:35:52.480Z,74.20
2018-09-15T02:38:22.779Z,74.50
2018-09-15T02:40:52.988Z,74.50
2018-09-15T02:43:23.791Z,74.70
2018-09-15T02:45:56.169Z,74.90
2018-09-15T02:48:26.595Z,75.10
2018-09-15T02:50:57.355Z,75.10
2018-09-15T02:53:27.671Z,75.30
2018-09-15T02:55:58.002Z,75.50
2018-09-15T02:58:28.317Z,75.60
2018-09-15T03:00:58.951Z,75.80
2018-09-15T03:03:29.343Z,76.10
2018-09-15T03:06:00.026Z,77.00
2018-09-15T03:08:30.495Z,76.60
2018-09-15T03:11:00.731Z,76.80
2018-09-15T03:13:31.194Z,77.20
2018-09-15T03:16:01.596Z,77.20
2018-09-15T03:18:31.691Z,77.30
2018-09-15T03:21:02.406Z,77.30
2018-09-15T03:23:32.851Z,77.50
2018-09-15T03:26:03.517Z,78.10
2018-09-15T03:28:33.773Z,77.90
2018-09-15T03:31:04.076Z,78.10
2018-09-15T03:33:34.979Z,78.20
2018-09-15T03:36:05.525Z,78.50
2018-09-15T03:38:35.707Z,78.60
2018-09-15T03:41:05.917Z,78.70
2018-09-15T03:43:36.591Z,79.00
2018-09-15T03:46:07.151Z,79.20
2018-09-15T03:48:38.126Z,79.40
2018-09-15T03:51:08.411Z,79.50
2018-09-15T03:53:39.290Z,79.70
2018-09-15T03:56:09.849Z,79.90
2018-09-15T03:58:40.270Z,80.10
2018-09-15T04:01:10.678Z,80.40
2018-09-15T04:03:42.221Z,80.50
2018-09-15T04:06:12.755Z,80.50
2018-09-15T04:08:43.013Z,80.70
2018-09-15T04:11:13.390Z,80.90
2018-09-15T04:13:44.684Z,81.10
2018-09-15T04:16:16.434Z,81.20
2018-09-15T04:18:46.763Z,81.40
2018-09-15T04:21:17.105Z,81.50
2018-09-15T04:23:47.841Z,81.50
2018-09-15T04:26:18.625Z,81.60
2018-09-15T04:28:49.564Z,81.60
2018-09-15T04:31:20.494Z,81.70
2018-09-15T04:33:51.855Z,81.70
2018-09-15T04:36:22.486Z,81.80
2018-09-15T04:38:53.604Z,81.90
2018-09-15T04:41:24.044Z,82.10
2018-09-15T04:43:54.222Z,82.20
2018-09-15T04:46:26.519Z,82.40
2018-09-15T04:48:57.154Z,82.60
2018-09-15T04:51:28.023Z,82.50
2018-09-15T04:53:58.616Z,83.30
2018-09-15T04:56:29.274Z,82.80
2018-09-15T04:59:00.290Z,82.80
2018-09-15T05:01:31.125Z,83.20
2018-09-15T05:04:01.678Z,83.30
2018-09-15T05:06:32.018Z,83.40
2018-09-15T05:09:02.484Z,83.60
2018-09-15T05:11:33.275Z,83.70
2018-09-15T05:14:05.538Z,83.80
2018-09-15T05:16:38.037Z,84.10
2018-09-15T05:19:08.903Z,84.10
2018-09-15T05:21:39.332Z,84.90
2018-09-15T05:24:09.942Z,84.50
2018-09-15T05:26:40.470Z,84.70
2018-09-15T05:29:11.134Z,84.90
2018-09-15T05:31:42.554Z,85.50
2018-09-15T05:34:13.324Z,85.30
2018-09-15T05:36:44.391Z,84.70
2018-09-15T05:39:17.049Z,85.30
2018-09-15T05:41:47.166Z,84.80
2018-09-15T05:44:17.509Z,85.40
2018-09-15T05:46:48.687Z,85.10
2018-09-15T05:49:19.435Z,84.90
2018-09-15T05:51:51.675Z,84.60
2018-09-15T05:54:23.518Z,85.00
2018-09-15T05:56:54.216Z,85.10
2018-09-15T05:59:24.918Z,85.20
2018-09-15T06:01:57.504Z,85.50
2018-09-15T06:04:28.415Z,85.80
2018-09-15T06:07:17.389Z,85.90
2018-09-15T06:09:48.234Z,86.00
2018-09-15T06:12:20.212Z,86.20
2018-09-15T06:14:50.440Z,86.30
2018-09-15T06:17:25.988Z,86.50
2018-09-15T06:19:58.173Z,86.50
2018-09-15T06:22:28.990Z,86.60
2018-09-15T06:25:00.886Z,87.00
2018-09-15T06:27:31.825Z,87.00
2018-09-15T06:30:02.776Z,87.00
2018-09-15T06:32:34.496Z,87.00
2018-09-15T06:35:05.931Z,86.90
2018-09-15T06:37:36.456Z,86.70
2018-09-15T06:40:08.499Z,86.70
2018-09-15T06:42:39.632Z,86.30
2018-09-15T06:45:11.705Z,85.80
2018-09-15T06:47:43.407Z,85.60
2018-09-15T06:50:13.954Z,85.30
2018-09-15T06:52:45.110Z,85.00
2018-09-15T06:55:15.732Z,84.80
2018-09-15T06:57:46.808Z,84.50
2018-09-15T07:00:17.522Z,84.20
2018-09-15T07:02:50.077Z,83.80
2018-09-15T07:05:21.062Z,83.10
2018-09-15T07:07:53.301Z,82.50
2018-09-15T07:10:24.125Z,82.00
2018-09-15T07:12:54.881Z,82.10
2018-09-15T07:15:26.847Z,81.90
2018-09-15T07:17:58.036Z,81.80
2018-09-15T07:20:28.476Z,81.90
2018-09-15T07:22:59.145Z,81.40
2018-09-15T07:25:29.429Z,81.50
2018-09-15T07:28:00.226Z,81.90
2018-09-15T07:30:31.168Z,82.20
2018-09-15T07:33:01.818Z,82.10
2018-09-15T07:35:32.474Z,82.40
2018-09-15T07:38:03.398Z,82.40
2018-09-15T07:40:33.773Z,81.90
2018-09-15T07:43:04.279Z,81.20
2018-09-15T07:45:35.361Z,80.60
2018-09-15T07:48:08.170Z,80.70
2018-09-15T07:50:39.305Z,80.00
2018-09-15T07:53:12.057Z,79.80
2018-09-15T07:55:43.116Z,79.70
2018-09-15T07:58:15.204Z,79.60
2018-09-15T08:00:46.725Z,79.30
2018-09-15T08:03:17.895Z,79.40
2018-09-15T08:05:48.361Z,79.50
2018-09-15T08:08:19.105Z,79.30
2018-09-15T08:10:49.927Z,79.30
2018-09-15T08:13:20.303Z,78.60
2018-09-15T08:15:51.095Z,78.60
2018-09-15T08:18:23.546Z,79.00
2018-09-15T08:20:56.022Z,78.60
2018-09-15T08:23:27.135Z,78.30
2018-09-15T08:25:57.846Z,77.80
2018-09-15T08:28:28.528Z,77.20
2018-09-15T08:30:59.022Z,76.60
2018-09-15T08:33:29.261Z,75.60
2018-09-15T08:35:59.824Z,75.20
2018-09-15T08:38:30.348Z,74.70
2018-09-15T08:41:02.895Z,74.00
2018-09-15T08:43:33.388Z,73.60
2018-09-15T08:46:03.765Z,72.90
2018-09-15T08:48:34.091Z,72.70
2018-09-15T08:51:05.373Z,72.40
2018-09-15T08:53:36.445Z,72.40
2018-09-15T08:56:08.754Z,72.30
2018-09-15T08:58:40.061Z,72.10
2018-09-15T09:01:10.395Z,71.80
2018-09-15T09:03:41.893Z,71.60
2018-09-15T09:06:13.988Z,71.60
2018-09-15T09:08:45.158Z,71.70
2018-09-15T09:11:15.916Z,71.50
2018-09-15T09:13:47.044Z,71.60
2018-09-15T09:16:17.307Z,71.50
2018-09-15T09:18:47.951Z,72.70
2018-09-15T09:21:18.625Z,72.70
2018-09-15T09:23:51.854Z,73.20
2018-09-15T09:26:23.744Z,73.40
2018-09-15T09:28:55.914Z,73.70
2018-09-15T09:31:26.729Z,73.10
2018-09-15T09:33:58.158Z,72.70
2018-09-15T09:36:31.462Z,72.30
2018-09-15T09:39:03.340Z,72.30
2018-09-15T09:41:36.842Z,69.80
2018-09-15T09:44:08.016Z,69.50
2018-09-15T09:46:38.631Z,69.10
2018-09-15T09:49:10.153Z,68.50
2018-09-15T09:51:41.007Z,69.10
2018-09-15T09:54:12.021Z,69.30
2018-09-15T09:56:42.954Z,68.90
2018-09-15T09:59:21.685Z,69.70
2018-09-15T10:01:55.974Z,69.70
2018-09-15T10:04:26.905Z,69.40
2018-09-15T10:06:57.795Z,68.10
2018-09-15T10:09:29.225Z,68.40
2018-09-15T10:11:59.491Z,67.80
2018-09-15T10:14:30.686Z,65.90
2018-09-15T10:17:00.998Z,62.70
2018-09-15T10:19:32.812Z,60.60
2018-09-15T10:22:03.465Z,59.60
2018-09-15T10:24:36.376Z,59.00
2018-09-15T10:27:07.496Z,59.40
2018-09-15T10:29:37.907Z,60.40
2018-09-15T10:32:08.597Z,61.60
2018-09-15T10:34:39.825Z,60.30
2018-09-15T10:37:10.661Z,61.20
2018-09-15T10:39:42.929Z,60.60
2018-09-15T10:42:13.855Z,58.60
2018-09-15T10:44:46.169Z,58.10
2018-09-15T10:47:16.835Z,57.40
2018-09-15T10:49:47.808Z,58.00
2018-09-15T10:52:19.600Z,58.20
2018-09-15T10:54:50.316Z,58.00
2018-09-15T10:57:21.205Z,58.70
2018-09-15T10:59:57.443Z,59.10
2018-09-15T11:02:29.757Z,59.00
2018-09-15T11:05:01.607Z,59.20
2018-09-15T11:07:31.961Z,59.10
2018-09-15T11:10:02.807Z,59.30
2018-09-15T11:12:34.068Z,58.80
2018-09-15T11:15:04.846Z,58.10
2018-09-15T11:17:36.388Z,57.70
2018-09-15T11:20:08.761Z,57.00
2018-09-15T11:22:39.643Z,55.70
2018-09-15T11:25:10.885Z,55.30
2018-09-15T11:27:41.896Z,53.70
2018-09-15T11:30:12.771Z,53.10
2018-09-15T11:32:43.759Z,52.70
2018-09-15T11:35:14.860Z,52.30
2018-09-15T11:37:45.118Z,52.80
2018-09-15T11:40:15.694Z,53.20
2018-09-15T11:42:46.926Z,53.60
2018-09-15T11:45:18.864Z,53.30
2018-09-15T11:47:49.779Z,51.60
2018-09-15T11:50:21.957Z,50.20
2018-09-15T11:52:54.771Z,49.60
2018-09-15T11:55:26.024Z,50.70
2018-09-15T11:57:59.564Z,51.60
2018-09-15T12:00:35.166Z,53.00
2018-09-15T12:03:07.673Z,53.90
2018-09-15T12:05:41.304Z,54.50
2018-09-15T12:08:12.692Z,55.10
2018-09-15T12:10:45.307Z,55.30
2018-09-15T12:13:15.756Z,54.90
2018-09-15T12:15:46.878Z,54.80
2018-09-15T12:18:18.145Z,54.40
2018-09-15T12:20:50.954Z,54.00
2018-09-15T12:23:21.644Z,53.00
2018-09-15T12:25:52.232Z,52.50
2018-09-15T12:28:22.811Z,50.10
2018-09-15T12:30:53.418Z,49.20
2018-09-15T12:33:25.466Z,48.20
2018-09-15T12:35:57.991Z,47.70
2018-09-15T12:38:29.445Z,48.20
2018-09-15T12:41:00.159Z,48.00
2018-09-15T12:43:31.177Z,47.60
2018-09-15T12:46:03.400Z,49.50
2018-09-15T12:48:34.817Z,48.30
2018-09-15T12:51:05.748Z,47.40
2018-09-15T12:53:36.775Z,46.90
2018-09-15T12:56:08.351Z,46.10
2018-09-15T12:58:38.966Z,46.10
2018-09-15T13:01:09.743Z,46.20
2018-09-15T13:03:41.181Z,46.20
2018-09-15T13:06:11.518Z,46.00
2018-09-15T13:08:41.817Z,43.60
2018-09-15T13:11:12.582Z,42.90
2018-09-15T13:13:44.082Z,44.90
2018-09-15T13:16:15.325Z,45.50
2018-09-15T13:18:46.223Z,46.80
2018-09-15T13:21:19.146Z,47.20
2018-09-15T13:23:50.614Z,48.20
2018-09-15T13:26:21.267Z,48.90
2018-09-15T13:28:53.731Z,49.10
2018-09-15T13:31:24.394Z,48.70
2018-09-15T13:33:55.373Z,49.00
2018-09-15T13:36:27.423Z,48.50
2018-09-15T13:38:58.619Z,47.60
2018-09-15T13:41:30.145Z,46.80
2018-09-15T13:44:00.797Z,44.90
2018-09-15T13:46:33.404Z,44.00
2018-09-15T13:49:06.254Z,43.30
2018-09-15T13:51:38.416Z,43.50
2018-09-15T13:54:09.641Z,44.10
2018-09-15T13:56:42.320Z,42.90
2018-09-15T13:59:14.186Z,41.50
2018-09-15T14:01:45.284Z,40.80
2018-09-15T14:04:16.492Z,41.50
2018-09-15T14:06:47.608Z,42.20
2018-09-15T14:09:18.834Z,42.90
2018-09-15T14:11:49.968Z,43.10
2018-09-15T14:14:21.405Z,43.80
2018-09-15T14:16:54.014Z,44.30
2018-09-15T14:19:24.775Z,44.30
2018-09-15T14:21:55.357Z,44.50
2018-09-15T14:24:25.886Z,45.20
2018-09-15T14:26:56.860Z,45.70
2018-09-15T14:29:27.613Z,46.30
2018-09-15T14:31:58.917Z,46.60
2018-09-15T14:34:29.662Z,47.00
2018-09-15T14:37:00.910Z,47.00
2018-09-15T14:39:31.729Z,47.10
2018-09-15T14:42:01.960Z,46.30
2018-09-15T14:44:34.152Z,46.60
2018-09-15T14:47:05.012Z,47.00
2018-09-15T14:49:35.310Z,46.90
2018-09-15T14:52:07.895Z,47.10
2018-09-15T14:54:39.175Z,47.20
2018-09-15T14:57:10.828Z,47.50
2018-09-15T14:59:43.039Z,47.60
2018-09-15T15:02:14.918Z,47.80
2018-09-15T15:04:45.240Z,48.20
2018-09-15T15:07:17.999Z,48.40
2018-09-15T15:09:55.493Z,48.60
2018-09-15T15:12:26.516Z,48.90
2018-09-15T15:14:58.812Z,49.10
2018-09-15T15:17:29.109Z,49.10
2018-09-15T15:20:00.063Z,49.00
2018-09-15T15:22:31.442Z,49.00
2018-09-15T15:25:04.436Z,48.90
2018-09-15T15:27:35.373Z,49.00
2018-09-15T15:30:06.814Z,49.30
2018-09-15T15:32:37.316Z,49.50
2018-09-15T15:35:07.800Z,49.60
2018-09-15T15:37:39.218Z,49.90
2018-09-15T15:40:12.282Z,49.90
2018-09-15T15:42:43.015Z,49.90
2018-09-15T15:45:15.373Z,50.10
2018-09-15T15:47:46.633Z,50.40
2018-09-15T15:50:18.925Z,50.50
2018-09-15T15:52:51.097Z,50.30
2018-09-15T15:55:22.425Z,50.60
2018-09-15T15:57:53.563Z,50.60
2018-09-15T16:00:25.872Z,50.70
2018-09-15T16:02:58.611Z,50.60
2018-09-15T16:05:29.827Z,50.80
2018-09-15T16:08:00.837Z,50.70
2018-09-15T16:10:31.579Z,50.80
2018-09-15T16:13:02.727Z,50.80
2018-09-15T16:15:35.403Z,50.70
2018-09-15T16:18:06.335Z,50.90
2018-09-15T16:20:37.565Z,51.00
2018-09-15T16:23:08.842Z,51.30
2018-09-15T16:25:39.785Z,51.60
2018-09-15T16:28:11.278Z,51.40
2018-09-15T16:30:41.202Z,51.50
2018-09-15T16:33:12.377Z,51.60
2018-09-15T16:35:43.396Z,51.50
2018-09-15T16:38:16.120Z,51.40
2018-09-15T16:40:47.485Z,51.30
2018-09-15T16:43:18.715Z,51.40
2018-09-15T16:45:49.228Z,51.70
2018-09-15T16:48:19.920Z,51.60
2018-09-15T16:50:51.114Z,51.80
2018-09-15T16:53:21.914Z,51.90
2018-09-15T16:55:52.496Z,52.20
2018-09-15T16:58:23.823Z,52.50
2018-09-15T17:00:55.184Z,52.60
2018-09-15T17:03:25.737Z,52.80
2018-09-15T17:05:56.113Z,53.00
2018-09-15T17:08:33.604Z,53.20
2018-09-15T17:11:04.518Z,53.10
2018-09-15T17:13:35.481Z,53.50
2018-09-15T17:16:06.716Z,53.70
2018-09-15T17:18:38.164Z,53.70
2018-09-15T17:21:08.689Z,53.80
2018-09-15T17:23:39.516Z,54.10
2018-09-15T17:26:11.219Z,54.10
2018-09-15T17:28:42.001Z,54.30
2018-09-15T17:31:12.264Z,54.60
2018-09-15T17:33:43.431Z,54.80
2018-09-15T17:36:13.977Z,54.90
2018-09-15T17:38:45.974Z,55.20
2018-09-15T17:41:16.731Z,55.40
2018-09-15T17:43:47.269Z,55.60
2018-09-15T17:46:17.967Z,56.20
2018-09-15T17:48:48.597Z,56.00
2018-09-15T17:51:19.307Z,56.30
2018-09-15T17:53:51.681Z,56.40
2018-09-15T17:56:22.535Z,56.90
2018-09-15T17:58:53.709Z,57.30
2018-09-15T18:01:24.704Z,57.70
2018-09-15T18:03:55.425Z,58.10
2018-09-15T18:06:25.965Z,58.40
2018-09-15T18:08:57.240Z,58.70
2018-09-15T18:11:27.549Z,59.10
2018-09-15T18:13:58.397Z,59.60
2018-09-15T18:16:29.006Z,60.20
2018-09-15T18:18:59.795Z,60.50
2018-09-15T18:21:30.428Z,60.70
2018-09-15T18:24:03.404Z,61.00
2018-09-15T18:26:33.701Z,61.50
2018-09-15T18:29:04.346Z,61.80
2018-09-15T18:31:34.230Z,62.50
2018-09-15T18:34:04.615Z,63.00
2018-09-15T18:36:35.276Z,63.30
2018-09-15T18:39:08.574Z,63.70
2018-09-15T18:41:39.551Z,64.40
2018-09-15T18:44:12.552Z,64.80
2018-09-15T18:46:43.561Z,65.40
2018-09-15T18:49:14.217Z,65.50
2018-09-15T18:51:45.505Z,65.70
2018-09-15T18:54:16.484Z,65.90
2018-09-15T18:56:47.314Z,66.00
2018-09-15T18:59:18.195Z,66.30
2018-09-15T19:01:48.644Z,66.80
2018-09-15T19:04:19.875Z,66.70
2018-09-15T19:06:50.644Z,67.00
2018-09-15T19:09:21.742Z,66.90
2018-09-15T19:11:52.444Z,67.10
2018-09-15T19:14:22.685Z,67.40
2018-09-15T19:16:53.467Z,68.20
2018-09-15T19:19:23.701Z,68.40
2018-09-15T19:21:53.962Z,67.80
2018-09-15T19:24:24.816Z,67.30
2018-09-15T19:26:55.289Z,68.20
2018-09-15T19:29:25.501Z,68.20
2018-09-15T19:31:56.133Z,68.70
2018-09-15T19:34:26.684Z,68.90
2018-09-15T19:36:57.178Z,69.30
2018-09-15T19:39:28.234Z,69.70
2018-09-15T19:41:58.815Z,70.00
2018-09-15T19:44:29.513Z,70.30
2018-09-15T19:47:00.357Z,70.50
2018-09-15T19:49:31.124Z,70.80
2018-09-15T19:52:01.845Z,71.20
2018-09-15T19:54:32.397Z,71.10
2018-09-15T19:57:02.918Z,70.90
2018-09-15T19:59:35.930Z,71.10
2018-09-15T20:02:08.658Z,71.20
2018-09-15T20:04:39.439Z,71.20
2018-09-15T20:07:10.447Z,71.30
2018-09-15T20:09:41.085Z,71.30
2018-09-15T20:12:11.803Z,71.50
2018-09-15T20:14:43.221Z,71.50
2018-09-15T20:17:13.001Z,71.60
2018-09-15T20:19:42.791Z,71.70
2018-09-15T20:22:13.626Z,72.20
2018-09-15T20:24:44.711Z,72.40
2018-09-15T20:27:15.684Z,72.80
2018-09-15T20:29:45.428Z,73.10
2018-09-15T20:32:17.803Z,73.60
2018-09-15T20:34:48.367Z,73.90
2018-09-15T20:37:19.223Z,74.10
2018-09-15T20:39:49.486Z,73.90
2018-09-15T20:42:19.902Z,74.20
2018-09-15T20:44:50.068Z,74.10
2018-09-15T20:47:20.461Z,73.70
2018-09-15T20:49:52.732Z,73.80
2018-09-15T20:52:23.280Z,74.10
2018-09-15T20:54:55.548Z,74.10
2018-09-15T20:57:25.887Z,74.00
2018-09-15T20:59:56.296Z,74.20
2018-09-15T21:02:26.926Z,74.20
2018-09-15T21:04:57.718Z,74.20
2018-09-15T21:07:28.649Z,74.40
2018-09-15T21:09:59.468Z,74.50
2018-09-15T21:12:29.880Z,74.60
2018-09-15T21:15:00.443Z,74.90
2018-09-15T21:17:31.114Z,75.00
2018-09-15T21:20:02.129Z,75.20
2018-09-15T21:22:32.899Z,75.50
2018-09-15T21:25:05.001Z,75.70
2018-09-15T21:27:35.318Z,75.70
2018-09-15T21:30:06.128Z,75.60
2018-09-15T21:32:37.321Z,75.90
2018-09-15T21:35:08.257Z,76.40
2018-09-15T21:37:38.606Z,76.80
2018-09-15T21:40:08.997Z,77.10
2018-09-15T21:42:39.379Z,77.50
2018-09-15T21:45:10.188Z,78.10
2018-09-15T21:47:41.041Z,78.50
2018-09-15T21:50:13.533Z,78.80
2018-09-15T21:52:44.335Z,79.20
2018-09-15T21:55:14.997Z,79.30
2018-09-15T21:57:45.706Z,79.40
2018-09-15T22:00:16.814Z,79.80
2018-09-15T22:02:47.590Z,79.80
2018-09-15T22:05:18.767Z,79.70
2018-09-15T22:07:49.395Z,79.80
2018-09-15T22:10:20.370Z,79.60
2018-09-15T22:12:52.107Z,79.30
2018-09-15T22:15:27.602Z,79.20
2018-09-15T22:17:59.049Z,79.20
2018-09-15T22:20:29.976Z,79.00
2018-09-15T22:23:00.872Z,78.90
2018-09-15T22:25:31.584Z,78.80
2018-09-15T22:28:02.577Z,78.70
2018-09-15T22:30:33.246Z,78.70
2018-09-15T22:33:03.973Z,78.80
2018-09-15T22:35:34.911Z,79.50
2018-09-15T22:38:06.021Z,79.20
2018-09-15T22:40:37.154Z,79.20
2018-09-15T22:43:09.563Z,79.50
2018-09-15T22:45:40.323Z,79.60
2018-09-15T22:48:11.568Z,79.80
2018-09-15T22:50:42.746Z,79.80
2018-09-15T22:53:13.897Z,80.00
2018-09-15T22:55:45.185Z,80.20
2018-09-15T22:58:15.512Z,80.20
2018-09-15T23:00:45.758Z,80.50
2018-09-15T23:03:16.394Z,80.50
2018-09-15T23:05:46.995Z,80.60
2018-09-15T23:08:19.720Z,80.60
2018-09-15T23:10:51.228Z,80.80
2018-09-15T23:13:22.847Z,80.80
2018-09-15T23:15:53.213Z,81.20
2018-09-15T23:18:23.533Z,81.20
2018-09-15T23:20:53.871Z,81.40
2018-09-15T23:23:24.979Z,81.50
2018-09-15T23:25:55.292Z,81.60
2018-09-15T23:28:26.390Z,81.90
2018-09-15T23:30:57.253Z,82.20
2018-09-15T23:33:27.898Z,82.50
2018-09-15T23:36:03.800Z,82.80
2018-09-15T23:38:34.288Z,83.00
2018-09-15T23:41:04.994Z,83.20
2018-09-15T23:43:35.773Z,83.00
2018-09-15T23:46:06.781Z,83.30
2018-09-15T23:48:37.491Z,83.20
2018-09-15T23:51:08.359Z,83.60
2018-09-15T23:53:39.474Z,83.90
2018-09-15T23:56:10.295Z,84.00
2018-09-15T23:58:40.600Z,84.30
